sensor_id;sensor_type;location;lat;lon;timestamp;pressure;altitude;pressure_sealevel;temperature;humidity
62849;BME280;48941;49.516;8.286;2023-04-29T00:00:53;100079.19;;;12.88;100.00
62849;BME280;48941;49.516;8.286;2023-04-29T00:03:21;100077.50;;;12.87;100.00
62849;BME280;48941;49.516;8.286;2023-04-29T00:05:49;100082.00;;;12.87;100.00
62849;BME280;48941;49.516;8.286;2023-04-29T00:08:17;100077.81;;;12.84;100.00
62849;BME280;48941;49.516;8.286;2023-04-29T00:10:44;100080.31;;;12.86;100.00
62849;BME280;48941;49.516;8.286;2023-04-29T00:13:12;100072.59;;;12.83;100.00
62849;BME280;48941;49.516;8.286;2023-04-29T00:15:40;100072.59;;;12.83;100.00
62849;BME280;48941;49.516;8.286;2023-04-29T00:18:10;100075.28;;;12.83;100.00
62849;BME280;48941;49.516;8.286;2023-04-29T00:20:39;100074.56;;;12.81;100.00
62849;BME280;48941;49.516;8.286;2023-04-29T00:23:08;100081.75;;;12.80;100.00
62849;BME280;48941;49.516;8.286;2023-04-29T00:25:36;100083.44;;;12.81;100.00
62849;BME280;48941;49.516;8.286;2023-04-29T00:28:04;100080.75;;;12.81;100.00
62849;BME280;48941;49.516;8.286;2023-04-29T00:30:32;100078.09;;;12.81;100.00
62849;BME280;48941;49.516;8.286;2023-04-29T00:33:00;100087.25;;;12.79;100.00
62849;BME280;48941;49.516;8.286;2023-04-29T00:35:29;100083.88;;;12.77;100.00
62849;BME280;48941;49.516;8.286;2023-04-29T00:37:57;100082.16;;;12.75;100.00
62849;BME280;48941;49.516;8.286;2023-04-29T00:40:26;100086.69;;;12.75;100.00
62849;BME280;48941;49.516;8.286;2023-04-29T00:42:54;100076.25;;;12.72;100.00
62849;BME280;48941;49.516;8.286;2023-04-29T00:45:22;100075.75;;;12.68;100.00
62849;BME280;48941;49.516;8.286;2023-04-29T00:47:50;100072.38;;;12.66;100.00
62849;BME280;48941;49.516;8.286;2023-04-29T00:50:18;100073.47;;;12.64;100.00
62849;BME280;48941;49.516;8.286;2023-04-29T00:52:48;100073.09;;;12.59;100.00
62849;BME280;48941;49.516;8.286;2023-04-29T00:55:15;100077.72;;;12.57;100.00
62849;BME280;48941;49.516;8.286;2023-04-29T00:57:44;100068.16;;;12.54;100.00
62849;BME280;48941;49.516;8.286;2023-04-29T01:00:13;100071.97;;;12.51;100.00
62849;BME280;48941;49.516;8.286;2023-04-29T01:02:42;100075.91;;;12.47;100.00
62849;BME280;48941;49.516;8.286;2023-04-29T01:05:12;100064.81;;;12.42;100.00
62849;BME280;48941;49.516;8.286;2023-04-29T01:07:46;100078.59;;;12.38;100.00
62849;BME280;48941;49.516;8.286;2023-04-29T01:10:21;100083.34;;;12.34;100.00
62849;BME280;48941;49.516;8.286;2023-04-29T01:12:59;100081.97;;;12.30;100.00
62849;BME280;48941;49.516;8.286;2023-04-29T01:15:36;100088.16;;;12.30;100.00
62849;BME280;48941;49.516;8.286;2023-04-29T01:18:09;100097.84;;;12.31;100.00
62849;BME280;48941;49.516;8.286;2023-04-29T01:20:38;100092.38;;;12.33;100.00
62849;BME280;48941;49.516;8.286;2023-04-29T01:23:07;100093.06;;;12.35;100.00
62849;BME280;48941;49.516;8.286;2023-04-29T01:25:36;100094.75;;;12.36;100.00
62849;BME280;48941;49.516;8.286;2023-04-29T01:28:10;100091.94;;;12.38;100.00
62849;BME280;48941;49.516;8.286;2023-04-29T01:30:45;100095.59;;;12.37;100.00
62849;BME280;48941;49.516;8.286;2023-04-29T01:33:22;100091.81;;;12.39;100.00
62849;BME280;48941;49.516;8.286;2023-04-29T01:36:07;100091.81;;;12.39;100.00
62849;BME280;48941;49.516;8.286;2023-04-29T01:38:43;100092.50;;;12.41;100.00
62849;BME280;48941;49.516;8.286;2023-04-29T01:41:17;100094.91;;;12.44;100.00
62849;BME280;48941;49.516;8.286;2023-04-29T01:43:50;100096.56;;;12.45;100.00
62849;BME280;48941;49.516;8.286;2023-04-29T01:46:19;100093.91;;;12.45;100.00
62849;BME280;48941;49.516;8.286;2023-04-29T01:48:47;100093.63;;;12.48;100.00
62849;BME280;48941;49.516;8.286;2023-04-29T01:51:14;100095.75;;;12.45;100.00
62849;BME280;48941;49.516;8.286;2023-04-29T01:53:42;100097.84;;;12.41;100.00
62849;BME280;48941;49.516;8.286;2023-04-29T01:56:10;100094.47;;;12.39;100.00
62849;BME280;48941;49.516;8.286;2023-04-29T01:58:39;100106.00;;;12.40;100.00
62849;BME280;48941;49.516;8.286;2023-04-29T02:01:07;100107.00;;;12.39;100.00
62849;BME280;48941;49.516;8.286;2023-04-29T02:03:36;100103.63;;;12.37;100.00
62849;BME280;48941;49.516;8.286;2023-04-29T02:06:04;100106.28;;;12.37;100.00
62849;BME280;48941;49.516;8.286;2023-04-29T02:08:33;100103.75;;;12.35;100.00
62849;BME280;48941;49.516;8.286;2023-04-29T02:11:01;100103.88;;;12.33;100.00
62849;BME280;48941;49.516;8.286;2023-04-29T02:13:28;100105.03;;;12.31;100.00
62849;BME280;48941;49.516;8.286;2023-04-29T02:16:06;100107.25;;;12.26;100.00
62849;BME280;48941;49.516;8.286;2023-04-29T02:18:34;100109.38;;;12.22;100.00
62849;BME280;48941;49.516;8.286;2023-04-29T02:21:02;100110.78;;;12.17;100.00
62849;BME280;48941;49.516;8.286;2023-04-29T02:23:29;100115.56;;;12.13;100.00
62849;BME280;48941;49.516;8.286;2023-04-29T02:25:57;100111.34;;;12.10;100.00
62849;BME280;48941;49.516;8.286;2023-04-29T02:28:25;100124.13;;;12.07;100.00
62849;BME280;48941;49.516;8.286;2023-04-29T02:30:53;100117.50;;;12.01;100.00
62849;BME280;48941;49.516;8.286;2023-04-29T02:33:22;100112.59;;;11.97;100.00
62849;BME280;48941;49.516;8.286;2023-04-29T02:35:50;100107.66;;;11.92;100.00
62849;BME280;48941;49.516;8.286;2023-04-29T02:38:17;100109.63;;;11.90;100.00
62849;BME280;48941;49.516;8.286;2023-04-29T02:40:45;100118.84;;;11.86;100.00
62849;BME280;48941;49.516;8.286;2023-04-29T02:43:13;100122.78;;;11.82;100.00
62849;BME280;48941;49.516;8.286;2023-04-29T02:45:41;100123.50;;;11.84;100.00
62849;BME280;48941;49.516;8.286;2023-04-29T02:48:09;100122.06;;;11.80;100.00
62849;BME280;48941;49.516;8.286;2023-04-29T02:50:38;100110.00;;;11.75;100.00
62849;BME280;48941;49.516;8.286;2023-04-29T02:53:06;100121.09;;;11.71;100.00
62849;BME280;48941;49.516;8.286;2023-04-29T02:55:33;100119.53;;;11.68;100.00
62849;BME280;48941;49.516;8.286;2023-04-29T02:58:01;100117.97;;;11.66;100.00
62849;BME280;48941;49.516;8.286;2023-04-29T03:00:29;100119.22;;;11.62;100.00
62849;BME280;48941;49.516;8.286;2023-04-29T03:02:57;100122.59;;;11.64;100.00
62849;BME280;48941;49.516;8.286;2023-04-29T03:05:24;100119.34;;;11.60;100.00
62849;BME280;48941;49.516;8.286;2023-04-29T03:07:54;100123.97;;;11.58;100.00
62849;BME280;48941;49.516;8.286;2023-04-29T03:10:22;100112.19;;;11.51;100.00
62849;BME280;48941;49.516;8.286;2023-04-29T03:12:50;100118.06;;;11.45;100.00
62849;BME280;48941;49.516;8.286;2023-04-29T03:15:18;100120.88;;;11.43;100.00
62849;BME280;48941;49.516;8.286;2023-04-29T03:17:45;100120.16;;;11.41;100.00
62849;BME280;48941;49.516;8.286;2023-04-29T03:20:14;100121.28;;;11.39;100.00
62849;BME280;48941;49.516;8.286;2023-04-29T03:22:41;100123.06;;;11.38;100.00
62849;BME280;48941;49.516;8.286;2023-04-29T03:25:11;100124.19;;;11.35;100.00
62849;BME280;48941;49.516;8.286;2023-04-29T03:27:39;100127.97;;;11.33;100.00
62849;BME280;48941;49.516;8.286;2023-04-29T03:30:08;100123.78;;;11.30;100.00
62849;BME280;48941;49.516;8.286;2023-04-29T03:32:35;100127.28;;;11.31;100.00
62849;BME280;48941;49.516;8.286;2023-04-29T03:35:04;100130.06;;;11.29;100.00
62849;BME280;48941;49.516;8.286;2023-04-29T03:37:32;100126.56;;;11.29;100.00
62849;BME280;48941;49.516;8.286;2023-04-29T03:40:00;100128.53;;;11.27;100.00
62849;BME280;48941;49.516;8.286;2023-04-29T03:42:29;100135.69;;;11.26;100.00
62849;BME280;48941;49.516;8.286;2023-04-29T03:44:57;100135.69;;;11.26;100.00
62849;BME280;48941;49.516;8.286;2023-04-29T03:47:24;100137.34;;;11.27;100.00
62849;BME280;48941;49.516;8.286;2023-04-29T03:49:52;100138.19;;;11.28;100.00
62849;BME280;48941;49.516;8.286;2023-04-29T03:52:20;100146.91;;;11.30;100.00
62849;BME280;48941;49.516;8.286;2023-04-29T03:54:48;100149.19;;;11.34;100.00
62849;BME280;48941;49.516;8.286;2023-04-29T03:57:16;100152.28;;;11.40;100.00
62849;BME280;48941;49.516;8.286;2023-04-29T03:59:45;100146.69;;;11.43;100.00
62849;BME280;48941;49.516;8.286;2023-04-29T04:02:16;100147.41;;;11.45;100.00
62849;BME280;48941;49.516;8.286;2023-04-29T04:04:44;100154.56;;;11.44;100.00
62849;BME280;48941;49.516;8.286;2023-04-29T04:07:12;100155.53;;;11.43;100.00
62849;BME280;48941;49.516;8.286;2023-04-29T04:09:40;100159.91;;;11.44;100.00
62849;BME280;48941;49.516;8.286;2023-04-29T04:12:07;100162.56;;;11.44;100.00
62849;BME280;48941;49.516;8.286;2023-04-29T04:14:35;100164.94;;;11.47;100.00
62849;BME280;48941;49.516;8.286;2023-04-29T04:17:04;100171.00;;;11.49;100.00
62849;BME280;48941;49.516;8.286;2023-04-29T04:19:33;100168.91;;;11.53;100.00
62849;BME280;48941;49.516;8.286;2023-04-29T04:22:02;100162.56;;;11.54;100.00
62849;BME280;48941;49.516;8.286;2023-04-29T04:24:30;100170.31;;;11.57;100.00
62849;BME280;48941;49.516;8.286;2023-04-29T04:26:57;100170.03;;;11.60;100.00
62849;BME280;48941;49.516;8.286;2023-04-29T04:29:25;100169.66;;;11.65;100.00
62849;BME280;48941;49.516;8.286;2023-04-29T04:31:53;100171.78;;;11.71;100.00
62849;BME280;48941;49.516;8.286;2023-04-29T04:34:22;100177.69;;;11.74;100.00
62849;BME280;48941;49.516;8.286;2023-04-29T04:36:50;100181.91;;;11.77;100.00
62849;BME280;48941;49.516;8.286;2023-04-29T04:39:18;100184.28;;;11.80;100.00
62849;BME280;48941;49.516;8.286;2023-04-29T04:41:45;100190.19;;;11.84;100.00
62849;BME280;48941;49.516;8.286;2023-04-29T04:44:13;100190.78;;;11.87;100.00
62849;BME280;48941;49.516;8.286;2023-04-29T04:46:42;100195.03;;;11.90;100.00
62849;BME280;48941;49.516;8.286;2023-04-29T04:49:09;100199.25;;;11.92;100.00
62849;BME280;48941;49.516;8.286;2023-04-29T04:51:38;100199.81;;;11.96;100.00
62849;BME280;48941;49.516;8.286;2023-04-29T04:54:06;100196.88;;;11.99;100.00
62849;BME280;48941;49.516;8.286;2023-04-29T04:56:34;100208.28;;;12.01;100.00
62849;BME280;48941;49.516;8.286;2023-04-29T04:59:03;100214.19;;;12.05;100.00
62849;BME280;48941;49.516;8.286;2023-04-29T05:01:31;100215.03;;;12.05;100.00
62849;BME280;48941;49.516;8.286;2023-04-29T05:03:59;100220.09;;;12.08;100.00
62849;BME280;48941;49.516;8.286;2023-04-29T05:06:28;100229.78;;;12.09;99.80
62849;BME280;48941;49.516;8.286;2023-04-29T05:08:57;100229.78;;;12.09;99.89
62849;BME280;48941;49.516;8.286;2023-04-29T05:11:25;100238.38;;;12.13;99.77
62849;BME280;48941;49.516;8.286;2023-04-29T05:13:53;100237.38;;;12.14;100.00
62849;BME280;48941;49.516;8.286;2023-04-29T05:16:20;100238.94;;;12.17;99.95
62849;BME280;48941;49.516;8.286;2023-04-29T05:18:48;100242.19;;;12.20;99.89
62849;BME280;48941;49.516;8.286;2023-04-29T05:21:16;100241.91;;;12.23;99.88
62849;BME280;48941;49.516;8.286;2023-04-29T05:23:44;100245.28;;;12.25;99.35
62849;BME280;48941;49.516;8.286;2023-04-29T05:26:13;100244.16;;;12.28;98.68
62849;BME280;48941;49.516;8.286;2023-04-29T05:28:41;100250.34;;;12.28;98.72
62849;BME280;48941;49.516;8.286;2023-04-29T05:31:09;100258.38;;;12.28;99.44
62849;BME280;48941;49.516;8.286;2023-04-29T05:33:36;100257.38;;;12.29;100.00
62849;BME280;48941;49.516;8.286;2023-04-29T05:36:05;100255.53;;;12.30;100.00
62849;BME280;48941;49.516;8.286;2023-04-29T05:38:33;100266.09;;;12.31;100.00
62849;BME280;48941;49.516;8.286;2023-04-29T05:41:01;100264.84;;;12.35;100.00
62849;BME280;48941;49.516;8.286;2023-04-29T05:43:30;100273.41;;;12.39;100.00
62849;BME280;48941;49.516;8.286;2023-04-29T05:45:58;100265.84;;;12.44;100.00
62849;BME280;48941;49.516;8.286;2023-04-29T05:48:26;100266.25;;;12.49;99.11
62849;BME280;48941;49.516;8.286;2023-04-29T05:50:55;100275.44;;;12.57;99.53
62849;BME280;48941;49.516;8.286;2023-04-29T05:53:23;100282.88;;;12.63;99.15
62849;BME280;48941;49.516;8.286;2023-04-29T05:55:50;100277.81;;;12.69;99.72
62849;BME280;48941;49.516;8.286;2023-04-29T05:58:18;100282.72;;;12.74;98.90
62849;BME280;48941;49.516;8.286;2023-04-29T06:00:47;100286.69;;;12.80;98.67
62849;BME280;48941;49.516;8.286;2023-04-29T06:03:15;100283.75;;;12.83;97.94
62849;BME280;48941;49.516;8.286;2023-04-29T06:05:43;100285.84;;;12.89;97.51
62849;BME280;48941;49.516;8.286;2023-04-29T06:08:12;100293.56;;;12.92;95.91
62849;BME280;48941;49.516;8.286;2023-04-29T06:10:39;100286.13;;;12.95;95.61
62849;BME280;48941;49.516;8.286;2023-04-29T06:13:07;100288.53;;;12.99;96.02
62849;BME280;48941;49.516;8.286;2023-04-29T06:15:35;100296.25;;;13.02;94.80
62849;BME280;48941;49.516;8.286;2023-04-29T06:18:04;100290.75;;;13.03;94.00
62849;BME280;48941;49.516;8.286;2023-04-29T06:20:32;100306.69;;;13.05;93.89
62849;BME280;48941;49.516;8.286;2023-04-29T06:23:02;100311.72;;;13.08;92.95
62849;BME280;48941;49.516;8.286;2023-04-29T06:25:31;100313.44;;;13.09;92.58
62849;BME280;48941;49.516;8.286;2023-04-29T06:27:59;100319.34;;;13.12;91.82
62849;BME280;48941;49.516;8.286;2023-04-29T06:30:27;100314.56;;;13.16;91.47
62849;BME280;48941;49.516;8.286;2023-04-29T06:32:55;100324.13;;;13.19;91.19
62849;BME280;48941;49.516;8.286;2023-04-29T06:35:24;100323.69;;;13.23;92.46
62849;BME280;48941;49.516;8.286;2023-04-29T06:37:52;100328.59;;;13.28;93.02
62849;BME280;48941;49.516;8.286;2023-04-29T06:40:22;100324.72;;;13.32;93.24
62849;BME280;48941;49.516;8.286;2023-04-29T06:42:49;100321.59;;;13.37;93.52
62849;BME280;48941;49.516;8.286;2023-04-29T06:45:18;100323.84;;;13.41;94.27
62849;BME280;48941;49.516;8.286;2023-04-29T06:47:46;100323.56;;;13.44;94.75
62849;BME280;48941;49.516;8.286;2023-04-29T06:50:14;100332.72;;;13.42;95.21
62849;BME280;48941;49.516;8.286;2023-04-29T06:52:43;100333.56;;;13.42;95.11
62849;BME280;48941;49.516;8.286;2023-04-29T06:55:11;100338.63;;;13.35;95.24
62849;BME280;48941;49.516;8.286;2023-04-29T06:57:38;100355.69;;;13.34;95.23
62849;BME280;48941;49.516;8.286;2023-04-29T07:00:07;100354.97;;;13.32;95.71
62849;BME280;48941;49.516;8.286;2023-04-29T07:02:35;100354.28;;;13.30;95.84
62849;BME280;48941;49.516;8.286;2023-04-29T07:05:05;100368.34;;;13.32;95.93
62849;BME280;48941;49.516;8.286;2023-04-29T07:07:33;100367.53;;;13.32;95.33
62849;BME280;48941;49.516;8.286;2023-04-29T07:10:03;100369.31;;;13.31;94.70
62849;BME280;48941;49.516;8.286;2023-04-29T07:12:30;100370.31;;;13.30;92.57
62849;BME280;48941;49.516;8.286;2023-04-29T07:14:58;100378.47;;;13.29;90.39
62849;BME280;48941;49.516;8.286;2023-04-29T07:17:28;100373.97;;;13.29;89.67
62849;BME280;48941;49.516;8.286;2023-04-29T07:19:56;100384.53;;;13.31;88.00
62849;BME280;48941;49.516;8.286;2023-04-29T07:22:24;100391.72;;;13.30;86.55
62849;BME280;48941;49.516;8.286;2023-04-29T07:24:52;100395.25;;;13.31;86.94
62849;BME280;48941;49.516;8.286;2023-04-29T07:27:22;100396.94;;;13.32;84.90
62849;BME280;48941;49.516;8.286;2023-04-29T07:29:50;100398.88;;;13.30;84.92
62849;BME280;48941;49.516;8.286;2023-04-29T07:32:17;100408.47;;;13.32;83.70
62849;BME280;48941;49.516;8.286;2023-04-29T07:34:45;100412.13;;;13.31;83.82
62849;BME280;48941;49.516;8.286;2023-04-29T07:37:13;100417.47;;;13.31;84.78
62849;BME280;48941;49.516;8.286;2023-04-29T07:39:41;100403.66;;;13.26;84.87
62849;BME280;48941;49.516;8.286;2023-04-29T07:42:08;100418.56;;;13.29;85.11
62849;BME280;48941;49.516;8.286;2023-04-29T07:44:38;100421.50;;;13.26;85.01
62849;BME280;48941;49.516;8.286;2023-04-29T07:47:06;100426.88;;;13.26;84.91
62849;BME280;48941;49.516;8.286;2023-04-29T07:49:34;100427.03;;;13.24;84.42
62849;BME280;48941;49.516;8.286;2023-04-29T07:52:03;100436.03;;;13.23;84.50
62849;BME280;48941;49.516;8.286;2023-04-29T07:54:31;100435.44;;;13.20;84.37
62849;BME280;48941;49.516;8.286;2023-04-29T07:56:59;100435.44;;;13.20;84.66
62849;BME280;48941;49.516;8.286;2023-04-29T07:59:29;100443.47;;;13.20;83.80
62849;BME280;48941;49.516;8.286;2023-04-29T08:01:58;100439.00;;;13.20;83.67
62849;BME280;48941;49.516;8.286;2023-04-29T08:04:25;100439.97;;;13.19;83.84
62849;BME280;48941;49.516;8.286;2023-04-29T08:06:54;100440.09;;;13.18;83.83
62849;BME280;48941;49.516;8.286;2023-04-29T08:09:22;100444.03;;;13.13;83.55
62849;BME280;48941;49.516;8.286;2023-04-29T08:11:50;100443.91;;;13.15;83.31
62849;BME280;48941;49.516;8.286;2023-04-29T08:14:17;100451.34;;;13.11;83.94
62849;BME280;48941;49.516;8.286;2023-04-29T08:16:45;100453.03;;;13.12;83.85
62849;BME280;48941;49.516;8.286;2023-04-29T08:19:15;100451.63;;;13.08;82.96
62849;BME280;48941;49.516;8.286;2023-04-29T08:21:43;100458.94;;;13.06;83.38
62849;BME280;48941;49.516;8.286;2023-04-29T08:24:10;100462.72;;;13.04;83.18
62849;BME280;48941;49.516;8.286;2023-04-29T08:26:39;100459.22;;;13.03;82.32
62849;BME280;48941;49.516;8.286;2023-04-29T08:29:08;100467.94;;;13.05;82.11
62849;BME280;48941;49.516;8.286;2023-04-29T08:31:35;100466.53;;;13.01;81.79
62849;BME280;48941;49.516;8.286;2023-04-29T08:34:03;100463.28;;;12.98;80.42
62849;BME280;48941;49.516;8.286;2023-04-29T08:36:32;100471.03;;;13.01;81.13
62849;BME280;48941;49.516;8.286;2023-04-29T08:39:02;100482.84;;;12.98;81.99
62849;BME280;48941;49.516;8.286;2023-04-29T08:41:30;100474.84;;;12.98;82.00
62849;BME280;48941;49.516;8.286;2023-04-29T08:43:59;100478.22;;;13.00;80.77
62849;BME280;48941;49.516;8.286;2023-04-29T08:46:27;100483.41;;;13.02;81.80
62849;BME280;48941;49.516;8.286;2023-04-29T08:48:55;100484.13;;;13.04;82.35
62849;BME280;48941;49.516;8.286;2023-04-29T08:51:24;100488.63;;;13.03;81.70
62849;BME280;48941;49.516;8.286;2023-04-29T08:53:53;100483.28;;;13.03;81.43
62849;BME280;48941;49.516;8.286;2023-04-29T08:56:22;100486.66;;;13.05;81.65
62849;BME280;48941;49.516;8.286;2023-04-29T08:58:54;100494.69;;;13.05;80.97
62849;BME280;48941;49.516;8.286;2023-04-29T09:01:26;100484.81;;;13.06;81.24
62849;BME280;48941;49.516;8.286;2023-04-29T09:04:03;100486.53;;;13.07;80.68
62849;BME280;48941;49.516;8.286;2023-04-29T09:06:31;100494.41;;;13.08;80.45
62849;BME280;48941;49.516;8.286;2023-04-29T09:09:02;100501.06;;;13.14;80.55
62849;BME280;48941;49.516;8.286;2023-04-29T09:11:30;100494.97;;;13.12;79.12
62849;BME280;48941;49.516;8.286;2023-04-29T09:13:59;100497.97;;;13.19;79.23
62849;BME280;48941;49.516;8.286;2023-04-29T09:16:28;100513.59;;;13.23;78.06
62849;BME280;48941;49.516;8.286;2023-04-29T09:18:56;100514.59;;;13.22;78.34
62849;BME280;48941;49.516;8.286;2023-04-29T09:21:26;100517.81;;;13.26;77.80
62849;BME280;48941;49.516;8.286;2023-04-29T09:23:55;100516.00;;;13.26;77.64
62849;BME280;48941;49.516;8.286;2023-04-29T09:26:25;100514.78;;;13.30;78.30
62849;BME280;48941;49.516;8.286;2023-04-29T09:29:06;100514.22;;;13.37;78.91
62849;BME280;48941;49.516;8.286;2023-04-29T09:31:36;100511.25;;;13.40;76.66
62849;BME280;48941;49.516;8.286;2023-04-29T09:34:05;100516.91;;;13.37;77.00
62849;BME280;48941;49.516;8.286;2023-04-29T09:36:38;100509.28;;;13.42;77.54
62849;BME280;48941;49.516;8.286;2023-04-29T09:39:07;100516.03;;;13.46;78.10
62849;BME280;48941;49.516;8.286;2023-04-29T09:41:40;100518.47;;;13.49;77.10
62849;BME280;48941;49.516;8.286;2023-04-29T09:44:09;100523.38;;;13.53;75.45
62849;BME280;48941;49.516;8.286;2023-04-29T09:46:37;100520.31;;;13.58;75.29
62849;BME280;48941;49.516;8.286;2023-04-29T09:49:21;100527.47;;;13.67;74.71
62849;BME280;48941;49.516;8.286;2023-04-29T09:51:54;100531.31;;;13.74;73.81
62849;BME280;48941;49.516;8.286;2023-04-29T09:54:23;100522.72;;;13.81;73.79
62849;BME280;48941;49.516;8.286;2023-04-29T09:56:53;100525.97;;;13.94;74.36
62849;BME280;48941;49.516;8.286;2023-04-29T09:59:22;100528.47;;;14.05;72.45
62849;BME280;48941;49.516;8.286;2023-04-29T10:01:54;100521.84;;;14.19;72.81
62849;BME280;48941;49.516;8.286;2023-04-29T10:04:24;100515.88;;;14.35;73.40
62849;BME280;48941;49.516;8.286;2023-04-29T10:06:53;100515.41;;;14.49;73.30
62849;BME280;48941;49.516;8.286;2023-04-29T10:09:22;100517.53;;;14.65;72.28
62849;BME280;48941;49.516;8.286;2023-04-29T10:11:52;100516.19;;;14.79;71.11
62849;BME280;48941;49.516;8.286;2023-04-29T10:14:22;100520.25;;;14.93;70.10
62849;BME280;48941;49.516;8.286;2023-04-29T10:17:00;100526.00;;;14.98;69.37
62849;BME280;48941;49.516;8.286;2023-04-29T10:19:33;100527.00;;;14.97;70.27
62849;BME280;48941;49.516;8.286;2023-04-29T10:22:04;100527.25;;;15.04;68.52
62849;BME280;48941;49.516;8.286;2023-04-29T10:24:34;100527.09;;;15.05;68.72
62849;BME280;48941;49.516;8.286;2023-04-29T10:27:06;100527.03;;;15.15;68.38
62849;BME280;48941;49.516;8.286;2023-04-29T10:29:35;100527.38;;;15.12;66.90
62849;BME280;48941;49.516;8.286;2023-04-29T10:32:06;100518.41;;;15.21;65.89
62849;BME280;48941;49.516;8.286;2023-04-29T10:34:36;100520.53;;;15.18;66.86
62849;BME280;48941;49.516;8.286;2023-04-29T10:37:05;100524.78;;;15.20;67.23
62849;BME280;48941;49.516;8.286;2023-04-29T10:39:41;100527.31;;;15.22;68.94
62849;BME280;48941;49.516;8.286;2023-04-29T10:42:20;100529.69;;;15.25;65.94
62849;BME280;48941;49.516;8.286;2023-04-29T10:45:17;100524.09;;;15.18;66.88
62849;BME280;48941;49.516;8.286;2023-04-29T10:48:09;100524.09;;;15.18;66.46
62849;BME280;48941;49.516;8.286;2023-04-29T10:51:00;100527.88;;;15.16;67.55
62849;BME280;48941;49.516;8.286;2023-04-29T10:53:29;100527.19;;;15.13;68.27
62849;BME280;48941;49.516;8.286;2023-04-29T10:55:59;100527.78;;;15.07;67.57
62849;BME280;48941;49.516;8.286;2023-04-29T10:58:41;100530.66;;;15.06;68.20
62849;BME280;48941;49.516;8.286;2023-04-29T11:01:11;100524.72;;;15.02;68.88
62849;BME280;48941;49.516;8.286;2023-04-29T11:03:46;100534.75;;;15.00;67.82
62849;BME280;48941;49.516;8.286;2023-04-29T11:06:15;100539.25;;;15.00;67.32
62849;BME280;48941;49.516;8.286;2023-04-29T11:08:43;100539.16;;;14.91;68.68
62849;BME280;48941;49.516;8.286;2023-04-29T11:11:12;100539.91;;;14.84;68.42
62849;BME280;48941;49.516;8.286;2023-04-29T11:13:45;100531.44;;;14.79;69.48
62849;BME280;48941;49.516;8.286;2023-04-29T11:16:13;100534.72;;;14.72;69.42
62849;BME280;48941;49.516;8.286;2023-04-29T11:19:05;100526.53;;;14.74;71.28
62849;BME280;48941;49.516;8.286;2023-04-29T11:21:34;100521.56;;;14.79;71.57
62849;BME280;48941;49.516;8.286;2023-04-29T11:24:02;100527.94;;;14.78;71.48
62849;BME280;48941;49.516;8.286;2023-04-29T11:26:33;100529.47;;;14.81;71.88
62849;BME280;48941;49.516;8.286;2023-04-29T11:29:03;100528.31;;;14.83;72.36
62849;BME280;48941;49.516;8.286;2023-04-29T11:31:32;100536.63;;;14.90;72.41
62849;BME280;48941;49.516;8.286;2023-04-29T11:34:00;100536.78;;;14.88;72.20
62849;BME280;48941;49.516;8.286;2023-04-29T11:36:30;100539.59;;;14.87;72.39
62849;BME280;48941;49.516;8.286;2023-04-29T11:38:59;100539.47;;;14.88;71.97
62849;BME280;48941;49.516;8.286;2023-04-29T11:41:27;100535.25;;;14.86;72.03
62849;BME280;48941;49.516;8.286;2023-04-29T11:43:55;100533.25;;;14.88;72.21
62849;BME280;48941;49.516;8.286;2023-04-29T11:46:25;100538.47;;;14.89;71.98
62849;BME280;48941;49.516;8.286;2023-04-29T11:48:57;100537.59;;;14.99;72.87
62849;BME280;48941;49.516;8.286;2023-04-29T11:51:26;100537.44;;;15.00;71.19
62849;BME280;48941;49.516;8.286;2023-04-29T11:53:55;100542.50;;;15.03;71.65
62849;BME280;48941;49.516;8.286;2023-04-29T11:56:24;100544.34;;;15.03;71.02
62849;BME280;48941;49.516;8.286;2023-04-29T11:58:55;100552.94;;;15.06;70.58
62849;BME280;48941;49.516;8.286;2023-04-29T12:01:25;100549.25;;;15.07;69.74
62849;BME280;48941;49.516;8.286;2023-04-29T12:03:56;100546.75;;;15.06;69.48
62849;BME280;48941;49.516;8.286;2023-04-29T12:06:27;100548.72;;;15.04;69.37
62849;BME280;48941;49.516;8.286;2023-04-29T12:08:57;100550.25;;;15.06;69.25
62849;BME280;48941;49.516;8.286;2023-04-29T12:11:25;100545.59;;;15.08;69.63
62849;BME280;48941;49.516;8.286;2023-04-29T12:13:54;100549.25;;;15.07;67.79
62849;BME280;48941;49.516;8.286;2023-04-29T12:16:22;100552.47;;;15.11;68.78
62849;BME280;48941;49.516;8.286;2023-04-29T12:18:52;100553.72;;;15.17;66.89
62849;BME280;48941;49.516;8.286;2023-04-29T12:21:20;100556.56;;;15.15;67.03
62849;BME280;48941;49.516;8.286;2023-04-29T12:23:50;100561.78;;;15.17;67.10
62849;BME280;48941;49.516;8.286;2023-04-29T12:26:18;100555.56;;;15.16;67.15
62849;BME280;48941;49.516;8.286;2023-04-29T12:28:52;100562.06;;;15.13;65.84
62849;BME280;48941;49.516;8.286;2023-04-29T12:31:21;100561.81;;;15.07;65.86
62849;BME280;48941;49.516;8.286;2023-04-29T12:33:54;100564.06;;;15.11;65.70
62849;BME280;48941;49.516;8.286;2023-04-29T12:36:23;100556.47;;;15.07;65.60
62849;BME280;48941;49.516;8.286;2023-04-29T12:38:51;100558.31;;;15.06;65.63
62849;BME280;48941;49.516;8.286;2023-04-29T12:41:35;100559.72;;;15.01;65.96
62849;BME280;48941;49.516;8.286;2023-04-29T12:44:02;100560.00;;;14.98;65.77
62849;BME280;48941;49.516;8.286;2023-04-29T12:46:33;100559.88;;;14.99;64.77
62849;BME280;48941;49.516;8.286;2023-04-29T12:49:03;100554.94;;;15.04;65.13
62849;BME280;48941;49.516;8.286;2023-04-29T12:51:31;100560.16;;;15.06;66.38
62849;BME280;48941;49.516;8.286;2023-04-29T12:54:00;100566.22;;;15.08;65.02
62849;BME280;48941;49.516;8.286;2023-04-29T12:56:29;100564.38;;;15.08;65.28